Главная страница
METAR-TAF:

METAR-TAF

Аэропорты :

Olean, Нью-Йорк, США

широта: 42-14-28N, долгота: 078-22-17W, высота над уровнем моря: 651 м

Текущие метеонаблюдения

Эта сводка был подготовлена 34 минут назад, в 13:55 UTC
Ветер 7 Узел от западно-северо-западный, изменяющийся между западный и северно-северо-западный
Температура 4°C
Влажность 81%
Давление 1013 hPa
Видимость: 16.1 км
Сплошная облачность на высоте 1600 фута

METAR: KOLE 241355Z AUTO 30007KT 270V330 10SM OVC016 04/01 A2990 RMK AO2

Время: 10:29 (14:29 UTC)


TAF: отсутствует

Метеонаблюдения и прогнозы для более 4000 аэропортов (сводки METAR и TAF).

Имеющиеся станции представлены на карте желтыми и красными точками.

Чтобы увидеть название станции, наведите на нее мышь.

Затем щелкните, чтобы увидеть метеонаблюдения и метеопрогнозы.

Управление картой: чтобы увеличить масштаб, щелкните зеленые кнопки с черным крестиком; чтобы уменьшить масштаб, щелкните зеленую кнопку с тире; для просмотра соседних карт щелкайте зеленые стрелки.


METAR-TAF: